Time;durP1;ratioP1;P1;durP2;ratioP2;P2;SDS_P1;SDS_P2;PMS_P1;PMS_P2;Temp;Humidity;BMP_temperature;BMP_pressure;BME280_temperature;BME280_humidity;BME280_pressure;Samples;Min_cycle;Max_cycle;Signal;HPM_P1;HPM_P2
2023/12/11 00:00:49;;;;;;;0.10;0.10;;;;;;;;;;5034774;28;20044;-92
2023/12/11 00:03:15;;;;;;;0.10;0.10;;;;;;;;;;5034802;28;20072;-91
2023/12/11 00:05:42;;;;;;;0.10;0.10;;;;;;;;;;5034315;28;20036;-92
2023/12/11 00:08:08;;;;;;;0.10;0.10;;;;;;;;;;5051493;28;20052;-91
2023/12/11 00:10:34;;;;;;;0.10;0.10;;;;;;;;;;5034427;28;20477;-91
2023/12/11 00:13:00;;;;;;;0.10;0.10;;;;;;;;;;5034151;28;20041;-91
2023/12/11 00:15:26;;;;;;;0.10;0.10;;;;;;;;;;5034075;28;20056;-91
2023/12/11 00:17:52;;;;;;;0.10;0.10;;;;;;;;;;5034336;28;20040;-92
2023/12/11 00:20:18;;;;;;;0.20;0.20;;;;;;;;;;5034614;28;20041;-91
2023/12/11 00:22:44;;;;;;;0.10;0.10;;;;;;;;;;5034557;28;20152;-91
2023/12/11 00:25:10;;;;;;;0.10;0.10;;;;;;;;;;5034276;28;20064;-91
2023/12/11 00:27:36;;;;;;;0.10;0.10;;;;;;;;;;5033967;28;20319;-92
2023/12/11 00:30:03;;;;;;;0.10;0.10;;;;;;;;;;5033680;28;20048;-92
2023/12/11 00:32:29;;;;;;;0.10;0.10;;;;;;;;;;5033854;28;20048;-91
2023/12/11 00:34:55;;;;;;;0.10;0.10;;;;;;;;;;5033927;28;20080;-91
2023/12/11 00:37:21;;;;;;;0.10;0.10;;;;;;;;;;5037450;28;20538;-92
2023/12/11 00:39:47;;;;;;;0.10;0.10;;;;;;;;;;5037798;28;20067;-90
2023/12/11 00:42:13;;;;;;;0.10;0.10;;;;;;;;;;5037797;28;20044;-91
2023/12/11 00:44:39;;;;;;;0.10;0.10;;;;;;;;;;5037252;28;20037;-90
2023/12/11 00:47:05;;;;;;;0.20;0.20;;;;;;;;;;5037673;28;20377;-89
2023/12/11 00:49:31;;;;;;;0.10;0.10;;;;;;;;;;5037527;28;20392;-90
2023/12/11 00:51:58;;;;;;;0.10;0.10;;;;;;;;;;5037302;28;20041;-89
2023/12/11 00:54:24;;;;;;;0.10;0.10;;;;;;;;;;5037282;28;20401;-89
2023/12/11 00:56:50;;;;;;;0.10;0.10;;;;;;;;;;5037614;28;20063;-90
2023/12/11 00:59:16;;;;;;;0.20;0.20;;;;;;;;;;5037237;28;20133;-91
2023/12/11 01:01:42;;;;;;;0.10;0.10;;;;;;;;;;5036996;28;20083;-91
2023/12/11 01:04:08;;;;;;;0.10;0.10;;;;;;;;;;5037103;28;20457;-89
2023/12/11 01:06:34;;;;;;;0.30;0.30;;;;;;;;;;5037149;28;20045;-91
2023/12/11 01:09:00;;;;;;;0.20;0.20;;;;;;;;;;5037260;28;20090;-91
2023/12/11 01:11:26;;;;;;;0.10;0.10;;;;;;;;;;5036920;28;20080;-90
2023/12/11 01:13:52;;;;;;;0.10;0.10;;;;;;;;;;5036762;28;20136;-91
2023/12/11 01:16:19;;;;;;;0.10;0.10;;;;;;;;;;5036961;28;20049;-90
2023/12/11 01:18:45;;;;;;;0.20;0.20;;;;;;;;;;5036886;28;20401;-91
2023/12/11 01:21:11;;;;;;;0.10;0.10;;;;;;;;;;5036658;28;20041;-90
2023/12/11 01:23:37;;;;;;;0.10;0.10;;;;;;;;;;5036656;28;20742;-90
2023/12/11 01:26:03;;;;;;;0.10;0.10;;;;;;;;;;5036653;28;20532;-90
2023/12/11 01:28:29;;;;;;;0.10;0.10;;;;;;;;;;5036788;28;20048;-90
2023/12/11 01:30:55;;;;;;;0.10;0.10;;;;;;;;;;5036466;28;20544;-90
2023/12/11 01:33:21;;;;;;;0.10;0.10;;;;;;;;;;5036548;28;20045;-91
2023/12/11 01:35:47;;;;;;;0.10;0.10;;;;;;;;;;5036912;28;20084;-90
2023/12/11 01:38:13;;;;;;;0.10;0.10;;;;;;;;;;5036495;28;20087;-90
2023/12/11 01:40:39;;;;;;;0.20;0.20;;;;;;;;;;5036300;28;20048;-88
2023/12/11 01:43:16;;;;;;;0.10;0.10;;;;;;;;;;5036273;28;20041;-90
2023/12/11 01:45:42;;;;;;;0.10;0.10;;;;;;;;;;5052829;28;20082;-90
2023/12/11 01:48:11;;;;;;;0.10;0.10;;;;;;;;;;5036036;28;20129;-91
2023/12/11 01:50:37;;;;;;;0.20;0.20;;;;;;;;;;5036244;28;20100;-90
2023/12/11 01:53:03;;;;;;;0.10;0.10;;;;;;;;;;5036082;28;20040;-90
2023/12/11 01:55:30;;;;;;;0.10;0.10;;;;;;;;;;5036271;28;20063;-89
2023/12/11 01:57:56;;;;;;;0.10;0.10;;;;;;;;;;5036310;28;20037;-89
2023/12/11 02:00:23;;;;;;;0.10;0.10;;;;;;;;;;5036004;28;20082;-90
2023/12/11 02:02:49;;;;;;;0.10;0.10;;;;;;;;;;5036091;28;20483;-90
2023/12/11 02:05:15;;;;;;;0.10;0.10;;;;;;;;;;5035706;28;20488;-90
2023/12/11 02:07:41;;;;;;;0.10;0.10;;;;;;;;;;5035859;28;20045;-91
2023/12/11 02:10:07;;;;;;;0.10;0.10;;;;;;;;;;5018715;28;20057;-89
2023/12/11 02:12:33;;;;;;;0.10;0.10;;;;;;;;;;5035665;28;20132;-91
2023/12/11 02:14:59;;;;;;;0.30;0.30;;;;;;;;;;5035551;28;20072;-91
2023/12/11 02:17:25;;;;;;;0.10;0.10;;;;;;;;;;5035886;28;20044;-91
2023/12/11 02:19:51;;;;;;;0.20;0.20;;;;;;;;;;5035518;28;20041;-90
2023/12/11 02:22:18;;;;;;;0.10;0.10;;;;;;;;;;5035897;28;20128;-89
2023/12/11 02:24:47;;;;;;;0.10;0.10;;;;;;;;;;5035593;28;20037;-89
2023/12/11 02:27:14;;;;;;;0.10;0.10;;;;;;;;;;5052084;28;20049;-91
2023/12/11 02:29:40;;;;;;;0.10;0.10;;;;;;;;;;5051720;28;20037;-90
2023/12/11 02:32:06;;;;;;;0.10;0.10;;;;;;;;;;5035823;28;20037;-90
2023/12/11 02:34:32;;;;;;;0.20;0.20;;;;;;;;;;5035236;28;20542;-92
2023/12/11 02:36:59;;;;;;;0.10;0.10;;;;;;;;;;5035184;28;20045;-91
2023/12/11 02:39:25;;;;;;;0.10;0.10;;;;;;;;;;5035803;28;20405;-91
2023/12/11 02:41:51;;;;;;;0.10;0.10;;;;;;;;;;5035914;28;20065;-91
2023/12/11 02:44:17;;;;;;;0.10;0.10;;;;;;;;;;5035867;28;20103;-91
2023/12/11 02:46:43;;;;;;;0.10;0.10;;;;;;;;;;5035913;28;20040;-92
2023/12/11 02:49:09;;;;;;;0.10;0.10;;;;;;;;;;5035621;28;20048;-91
2023/12/11 02:51:35;;;;;;;0.10;0.10;;;;;;;;;;5035069;28;20037;-90
2023/12/11 02:54:01;;;;;;;0.10;0.10;;;;;;;;;;5035023;28;20048;-89
2023/12/11 02:56:27;;;;;;;0.85;0.85;;;;;;;;;;5035000;28;20056;-89
2023/12/11 02:58:53;;;;;;;0.10;0.10;;;;;;;;;;5034213;28;20066;-91
2023/12/11 03:01:19;;;;;;;0.10;0.10;;;;;;;;;;5035101;28;20120;-89
2023/12/11 03:03:45;;;;;;;0.10;0.10;;;;;;;;;;5034685;28;20341;-90
2023/12/11 03:06:17;;;;;;;0.10;0.10;;;;;;;;;;5051192;28;20041;-90
2023/12/11 03:08:44;;;;;;;0.10;0.10;;;;;;;;;;5034912;28;20443;-89
2023/12/11 03:11:10;;;;;;;0.10;0.10;;;;;;;;;;5034492;28;20039;-89
2023/12/11 03:13:36;;;;;;;0.20;0.20;;;;;;;;;;5034458;28;20513;-91
2023/12/11 03:16:02;;;;;;;0.10;0.10;;;;;;;;;;5034494;28;20060;-91
2023/12/11 03:18:28;;;;;;;0.10;0.10;;;;;;;;;;5034317;28;20037;-91
2023/12/11 03:20:54;;;;;;;0.10;0.10;;;;;;;;;;5034387;28;20037;-91
2023/12/11 03:23:20;;;;;;;0.10;0.10;;;;;;;;;;5034419;28;20052;-90
2023/12/11 03:25:46;;;;;;;0.10;0.10;;;;;;;;;;5034422;28;20561;-90
2023/12/11 03:28:12;;;;;;;0.10;0.10;;;;;;;;;;5034670;28;20067;-89
2023/12/11 03:30:38;;;;;;;0.20;0.20;;;;;;;;;;5034426;28;20475;-89
2023/12/11 03:33:04;;;;;;;0.43;0.40;;;;;;;;;;5034363;28;20048;-89
2023/12/11 03:35:30;;;;;;;0.10;0.10;;;;;;;;;;5034405;28;20037;-89
2023/12/11 03:37:57;;;;;;;0.10;0.10;;;;;;;;;;5034313;28;20041;-90
2023/12/11 03:40:23;;;;;;;0.10;0.10;;;;;;;;;;5050775;28;20142;-91
2023/12/11 03:42:49;;;;;;;0.20;0.20;;;;;;;;;;5034316;28;20106;-89
2023/12/11 03:45:15;;;;;;;0.20;0.20;;;;;;;;;;5034330;28;20044;-91
2023/12/11 03:47:42;;;;;;;0.10;0.10;;;;;;;;;;5034209;28;20094;-90
2023/12/11 03:50:10;;;;;;;0.10;0.10;;;;;;;;;;5034037;28;20045;-90
2023/12/11 03:52:36;;;;;;;0.10;0.10;;;;;;;;;;5034879;28;20037;-90
2023/12/11 03:55:02;;;;;;;0.10;0.10;;;;;;;;;;5034137;28;20076;-89
2023/12/11 03:57:28;;;;;;;0.10;0.10;;;;;;;;;;5034367;28;20043;-89
2023/12/11 03:59:54;;;;;;;0.20;0.20;;;;;;;;;;5034684;28;20095;-91
2023/12/11 04:02:20;;;;;;;0.10;0.10;;;;;;;;;;5034164;28;20082;-91
2023/12/11 04:04:46;;;;;;;0.10;0.10;;;;;;;;;;5034130;28;20511;-90
2023/12/11 04:07:13;;;;;;;0.10;0.10;;;;;;;;;;5034293;28;20048;-91
2023/12/11 04:09:39;;;;;;;0.20;0.20;;;;;;;;;;5051401;28;20037;-90
2023/12/11 04:12:05;;;;;;;0.30;0.30;;;;;;;;;;5038181;28;20041;-91
2023/12/11 04:14:31;;;;;;;0.10;0.10;;;;;;;;;;5037917;28;20037;-91
2023/12/11 04:16:57;;;;;;;0.10;0.10;;;;;;;;;;5038027;28;20051;-90
2023/12/11 04:19:23;;;;;;;0.20;0.20;;;;;;;;;;5038113;28;20044;-90
2023/12/11 04:21:49;;;;;;;0.10;0.10;;;;;;;;;;5038003;28;20036;-90
2023/12/11 04:24:15;;;;;;;0.47;0.47;;;;;;;;;;5037865;28;20055;-90
2023/12/11 04:26:41;;;;;;;0.73;0.17;;;;;;;;;;5037949;28;20082;-90
2023/12/11 04:29:07;;;;;;;0.10;0.10;;;;;;;;;;5038013;28;20045;-91
2023/12/11 04:31:33;;;;;;;0.10;0.10;;;;;;;;;;5037860;28;20041;-91
2023/12/11 04:34:00;;;;;;;0.10;0.10;;;;;;;;;;5037588;28;20045;-91
2023/12/11 04:36:26;;;;;;;0.10;0.10;;;;;;;;;;5038185;28;20037;-91
2023/12/11 04:38:52;;;;;;;0.10;0.10;;;;;;;;;;5037802;28;20047;-91
2023/12/11 04:41:18;;;;;;;0.10;0.10;;;;;;;;;;5037057;28;20054;-91
2023/12/11 04:43:45;;;;;;;0.10;0.10;;;;;;;;;;5037547;28;20045;-91
2023/12/11 04:46:11;;;;;;;0.28;0.15;;;;;;;;;;5037714;28;20099;-93
2023/12/11 04:48:38;;;;;;;0.10;0.10;;;;;;;;;;5037817;28;20040;-90
2023/12/11 04:51:04;;;;;;;0.10;0.10;;;;;;;;;;5037361;28;20052;-91
2023/12/11 04:53:30;;;;;;;0.38;0.20;;;;;;;;;;5037235;28;20128;-91
2023/12/11 04:55:57;;;;;;;0.10;0.10;;;;;;;;;;5037105;28;20045;-90
2023/12/11 04:58:23;;;;;;;0.10;0.10;;;;;;;;;;5053877;28;20037;-89
2023/12/11 05:00:49;;;;;;;0.10;0.10;;;;;;;;;;5037026;28;20060;-91
2023/12/11 05:03:15;;;;;;;0.10;0.10;;;;;;;;;;5037405;28;20045;-89
2023/12/11 05:05:41;;;;;;;0.10;0.10;;;;;;;;;;5037148;28;20131;-90
2023/12/11 05:08:07;;;;;;;0.10;0.10;;;;;;;;;;5036805;28;20052;-91
2023/12/11 05:10:34;;;;;;;0.10;0.10;;;;;;;;;;5037360;28;20048;-92
2023/12/11 05:13:00;;;;;;;0.10;0.10;;;;;;;;;;5037373;28;20045;-91
2023/12/11 05:15:26;;;;;;;0.10;0.10;;;;;;;;;;5037328;28;20043;-93
2023/12/11 05:17:52;;;;;;;0.10;0.10;;;;;;;;;;5037203;28;20041;-88
2023/12/11 05:20:19;;;;;;;0.10;0.10;;;;;;;;;;5036869;28;20041;-91
2023/12/11 05:22:45;;;;;;;0.10;0.10;;;;;;;;;;5036499;28;20044;-89
2023/12/11 05:25:11;;;;;;;0.10;0.10;;;;;;;;;;5036754;28;20045;-89
2023/12/11 05:27:37;;;;;;;0.10;0.10;;;;;;;;;;5036561;28;20055;-90
2023/12/11 05:30:03;;;;;;;0.10;0.10;;;;;;;;;;5036776;28;20040;-90
2023/12/11 05:32:29;;;;;;;0.10;0.10;;;;;;;;;;5036563;28;20148;-91
2023/12/11 05:34:55;;;;;;;0.10;0.10;;;;;;;;;;5036228;28;20036;-89
2023/12/11 05:37:21;;;;;;;0.10;0.10;;;;;;;;;;5036374;28;20096;-89
2023/12/11 05:39:47;;;;;;;0.10;0.10;;;;;;;;;;5036318;28;20045;-89
2023/12/11 05:42:13;;;;;;;0.80;0.47;;;;;;;;;;5036216;28;20053;-90
2023/12/11 05:44:39;;;;;;;0.10;0.10;;;;;;;;;;5036186;28;20071;-89
2023/12/11 05:47:05;;;;;;;0.10;0.10;;;;;;;;;;5036622;28;20090;-91
2023/12/11 05:49:31;;;;;;;0.28;0.28;;;;;;;;;;5036539;28;20455;-89
2023/12/11 05:51:57;;;;;;;0.30;0.30;;;;;;;;;;5036441;28;20450;-89
2023/12/11 05:54:23;;;;;;;0.10;0.10;;;;;;;;;;5036044;28;20059;-90
2023/12/11 05:56:49;;;;;;;0.10;0.10;;;;;;;;;;5036064;28;20480;-88
2023/12/11 05:59:15;;;;;;;0.10;0.10;;;;;;;;;;5035951;28;20044;-90
2023/12/11 06:01:41;;;;;;;0.10;0.10;;;;;;;;;;5035926;28;20033;-90
2023/12/11 06:04:07;;;;;;;0.10;0.10;;;;;;;;;;5036099;28;20059;-89
2023/12/11 06:06:33;;;;;;;0.10;0.10;;;;;;;;;;5035952;28;20052;-90
2023/12/11 06:09:00;;;;;;;0.10;0.10;;;;;;;;;;5036068;28;20110;-90
2023/12/11 06:11:26;;;;;;;0.20;0.20;;;;;;;;;;5035645;28;20528;-89
2023/12/11 06:13:52;;;;;;;0.10;0.10;;;;;;;;;;5035566;28;20084;-89
2023/12/11 06:16:18;;;;;;;0.10;0.10;;;;;;;;;;5035907;28;20404;-90
2023/12/11 06:18:44;;;;;;;0.10;0.10;;;;;;;;;;5035585;28;20044;-90
2023/12/11 06:21:23;;;;;;;0.10;0.10;;;;;;;;;;5035443;28;20081;-90
2023/12/11 06:23:49;;;;;;;0.10;0.10;;;;;;;;;;5035730;28;20041;-90
2023/12/11 06:26:42;;;;;;;0.10;0.10;;;;;;;;;;5035694;28;20055;-90
2023/12/11 06:29:08;;;;;;;0.10;0.10;;;;;;;;;;5032256;28;20052;-88
2023/12/11 06:31:34;;;;;;;0.10;0.10;;;;;;;;;;5035821;28;20041;-90
2023/12/11 06:34:00;;;;;;;0.10;0.10;;;;;;;;;;5034408;28;20045;-88
2023/12/11 06:36:28;;;;;;;0.25;0.25;;;;;;;;;;5035482;28;20045;-89
2023/12/11 06:38:54;;;;;;;0.10;0.10;;;;;;;;;;5035330;28;20037;-89
2023/12/11 06:41:20;;;;;;;0.55;0.22;;;;;;;;;;5035410;28;20049;-89
2023/12/11 06:43:52;;;;;;;0.10;0.10;;;;;;;;;;5035313;28;20067;-91
2023/12/11 06:46:18;;;;;;;0.10;0.10;;;;;;;;;;5035731;28;20045;-90
2023/12/11 06:48:44;;;;;;;0.20;0.20;;;;;;;;;;5041665;28;20049;-90
2023/12/11 06:51:11;;;;;;;0.50;0.30;;;;;;;;;;5035238;28;20048;-91
2023/12/11 06:53:37;;;;;;;0.10;0.10;;;;;;;;;;5035333;28;20496;-90
2023/12/11 06:56:03;;;;;;;0.10;0.10;;;;;;;;;;5035296;28;20549;-88
2023/12/11 06:58:30;;;;;;;0.10;0.10;;;;;;;;;;5035103;28;20044;-91
2023/12/11 07:00:56;;;;;;;0.10;0.10;;;;;;;;;;5034953;28;20392;-90
2023/12/11 07:03:22;;;;;;;0.10;0.10;;;;;;;;;;5035024;28;20041;-89
2023/12/11 07:05:48;;;;;;;0.10;0.10;;;;;;;;;;5034666;28;20048;-90
2023/12/11 07:08:14;;;;;;;0.10;0.10;;;;;;;;;;5034748;28;20056;-89
2023/12/11 07:10:40;;;;;;;0.10;0.10;;;;;;;;;;5034781;28;20045;-90
2023/12/11 07:13:06;;;;;;;0.10;0.10;;;;;;;;;;5035021;28;20052;-91
2023/12/11 07:15:32;;;;;;;0.10;0.10;;;;;;;;;;5035335;28;20037;-90
2023/12/11 07:17:58;;;;;;;0.20;0.20;;;;;;;;;;5035124;28;20483;-90
2023/12/11 07:20:24;;;;;;;0.10;0.10;;;;;;;;;;5034726;28;20551;-90
2023/12/11 07:22:50;;;;;;;0.10;0.10;;;;;;;;;;5034760;28;20438;-91
2023/12/11 07:25:17;;;;;;;0.20;0.20;;;;;;;;;;5034720;28;20044;-90
2023/12/11 07:27:43;;;;;;;0.10;0.10;;;;;;;;;;5034677;28;20041;-90
2023/12/11 07:30:09;;;;;;;0.10;0.10;;;;;;;;;;5034911;28;20325;-92
2023/12/11 07:32:36;;;;;;;0.10;0.10;;;;;;;;;;5034782;28;20047;-91
2023/12/11 07:35:02;;;;;;;0.10;0.10;;;;;;;;;;5034563;28;20044;-90
2023/12/11 07:37:28;;;;;;;0.10;0.10;;;;;;;;;;5034896;28;20044;-91
2023/12/11 07:39:54;;;;;;;0.10;0.10;;;;;;;;;;5034697;28;20076;-91
2023/12/11 07:42:22;;;;;;;0.10;0.10;;;;;;;;;;5034655;28;20106;-90
2023/12/11 07:44:48;;;;;;;0.10;0.10;;;;;;;;;;5034390;28;20049;-89
2023/12/11 07:47:14;;;;;;;0.10;0.10;;;;;;;;;;5034851;28;20135;-91
2023/12/11 07:49:40;;;;;;;0.10;0.10;;;;;;;;;;5034487;28;20087;-89
2023/12/11 07:52:06;;;;;;;0.10;0.10;;;;;;;;;;5034946;28;20076;-90
2023/12/11 07:54:32;;;;;;;0.10;0.10;;;;;;;;;;5034087;28;20049;-89
2023/12/11 07:56:58;;;;;;;0.10;0.10;;;;;;;;;;5034249;28;20387;-90
2023/12/11 07:59:24;;;;;;;0.10;0.10;;;;;;;;;;5035432;28;20044;-88
2023/12/11 08:01:52;;;;;;;0.10;0.10;;;;;;;;;;5034197;28;20124;-89
2023/12/11 08:04:20;;;;;;;0.10;0.10;;;;;;;;;;5035684;28;20093;-93
2023/12/11 08:06:50;;;;;;;0.10;0.10;;;;;;;;;;5051116;28;20052;-92
2023/12/11 08:09:16;;;;;;;0.10;0.10;;;;;;;;;;5034571;28;20369;-89
2023/12/11 08:11:42;;;;;;;0.10;0.10;;;;;;;;;;5034335;28;20044;-91
2023/12/11 08:14:08;;;;;;;0.10;0.10;;;;;;;;;;5034214;28;20041;-87
2023/12/11 08:16:34;;;;;;;0.10;0.10;;;;;;;;;;5033884;28;20040;-87
2023/12/11 08:19:00;;;;;;;0.10;0.10;;;;;;;;;;5033813;28;20499;-88
2023/12/11 08:21:27;;;;;;;0.10;0.10;;;;;;;;;;5034078;28;20032;-88
2023/12/11 08:23:53;;;;;;;0.10;0.10;;;;;;;;;;5034237;28;20373;-89
2023/12/11 08:26:19;;;;;;;0.10;0.10;;;;;;;;;;5033926;28;20044;-87
2023/12/11 08:28:46;;;;;;;0.10;0.10;;;;;;;;;;5033838;28;20040;-89
2023/12/11 08:31:12;;;;;;;0.10;0.10;;;;;;;;;;5033851;28;20480;-89
2023/12/11 08:33:39;;;;;;;0.10;0.10;;;;;;;;;;5033721;28;20127;-90
2023/12/11 08:36:06;;;;;;;0.10;0.10;;;;;;;;;;5034444;28;20037;-90
2023/12/11 08:38:32;;;;;;;0.10;0.10;;;;;;;;;;5033856;28;20493;-87
2023/12/11 08:40:58;;;;;;;0.32;0.30;;;;;;;;;;5033862;28;20053;-88
2023/12/11 08:43:24;;;;;;;0.10;0.10;;;;;;;;;;5033624;28;20044;-87
2023/12/11 08:45:50;;;;;;;0.10;0.10;;;;;;;;;;5033686;28;20045;-88
2023/12/11 08:48:16;;;;;;;0.10;0.10;;;;;;;;;;5033596;28;20041;-87
2023/12/11 08:50:42;;;;;;;0.10;0.10;;;;;;;;;;5033680;28;20041;-89
2023/12/11 08:53:08;;;;;;;0.10;0.10;;;;;;;;;;5033519;28;20041;-88
2023/12/11 08:55:34;;;;;;;0.10;0.10;;;;;;;;;;5033529;28;20033;-88
2023/12/11 08:58:01;;;;;;;0.10;0.10;;;;;;;;;;5036152;28;20114;-88
2023/12/11 09:00:27;;;;;;;0.10;0.10;;;;;;;;;;5037134;28;20029;-89
2023/12/11 09:02:53;;;;;;;0.10;0.10;;;;;;;;;;5037497;28;20465;-88
2023/12/11 09:05:19;;;;;;;0.20;0.20;;;;;;;;;;5036962;28;20052;-87
2023/12/11 09:07:45;;;;;;;0.10;0.10;;;;;;;;;;5037048;28;20123;-89
2023/12/11 09:10:11;;;;;;;0.10;0.10;;;;;;;;;;5036881;28;20480;-89
2023/12/11 09:12:37;;;;;;;0.10;0.10;;;;;;;;;;5036907;28;20245;-88
2023/12/11 09:15:03;;;;;;;0.10;0.10;;;;;;;;;;5036725;28;20052;-89
2023/12/11 09:17:29;;;;;;;0.10;0.10;;;;;;;;;;5036757;28;20091;-89
2023/12/11 09:19:56;;;;;;;0.10;0.10;;;;;;;;;;5036723;28;20037;-89
2023/12/11 09:22:22;;;;;;;0.10;0.10;;;;;;;;;;5036724;28;20040;-89
2023/12/11 09:24:48;;;;;;;0.20;0.20;;;;;;;;;;5036527;28;20496;-86
2023/12/11 09:27:14;;;;;;;0.10;0.10;;;;;;;;;;5052905;28;20045;-89
2023/12/11 09:29:40;;;;;;;0.10;0.10;;;;;;;;;;5036318;28;20484;-91
2023/12/11 09:32:06;;;;;;;0.10;0.10;;;;;;;;;;5036545;28;20626;-91
2023/12/11 09:34:35;;;;;;;0.10;0.10;;;;;;;;;;5036650;28;20476;-91
2023/12/11 09:37:02;;;;;;;0.15;0.15;;;;;;;;;;5036641;28;20037;-92
2023/12/11 09:39:30;;;;;;;0.17;0.17;;;;;;;;;;5037036;28;20041;-90
2023/12/11 09:41:57;;;;;;;0.10;0.10;;;;;;;;;;5019895;28;20107;-91
2023/12/11 09:44:25;;;;;;;0.10;0.10;;;;;;;;;;5036762;28;20506;-93
2023/12/11 09:46:53;;;;;;;0.20;0.20;;;;;;;;;;5036939;28;20040;-92
2023/12/11 09:49:19;;;;;;;0.10;0.10;;;;;;;;;;5037202;28;20041;-91
2023/12/11 09:51:45;;;;;;;0.10;0.10;;;;;;;;;;5038731;28;20247;-92
2023/12/11 09:54:12;;;;;;;0.20;0.20;;;;;;;;;;5039903;28;20164;-92
2023/12/11 09:56:38;;;;;;;0.10;0.10;;;;;;;;;;5038462;28;20394;-91
2023/12/11 09:59:04;;;;;;;0.10;0.10;;;;;;;;;;5037970;28;20033;-92
2023/12/11 10:01:30;;;;;;;0.20;0.20;;;;;;;;;;5036862;28;20041;-92
2023/12/11 10:03:57;;;;;;;1.75;0.30;;;;;;;;;;5036810;28;20048;-91
2023/12/11 10:06:24;;;;;;;0.10;0.10;;;;;;;;;;5035934;28;20231;-92
2023/12/11 10:08:53;;;;;;;0.10;0.10;;;;;;;;;;5036300;28;20419;-91
2023/12/11 10:11:22;;;;;;;0.20;0.20;;;;;;;;;;5036418;28;20152;-91
2023/12/11 10:13:48;;;;;;;0.10;0.10;;;;;;;;;;5036444;28;20140;-91
2023/12/11 10:16:29;;;;;;;0.20;0.20;;;;;;;;;;5036537;28;20048;-90
2023/12/11 10:18:56;;;;;;;0.20;0.20;;;;;;;;;;5052823;28;20044;-91
2023/12/11 10:21:25;;;;;;;0.10;0.10;;;;;;;;;;5020190;28;20107;-91
2023/12/11 10:24:07;;;;;;;0.10;0.10;;;;;;;;;;5018686;28;20118;-91
2023/12/11 10:26:33;;;;;;;0.75;0.20;;;;;;;;;;5032323;28;20045;-92
2023/12/11 10:29:19;;;;;;;0.20;0.20;;;;;;;;;;5016162;28;20448;-89
2023/12/11 10:31:45;;;;;;;0.10;0.10;;;;;;;;;;5018906;28;20045;-89
2023/12/11 10:34:11;;;;;;;0.30;0.30;;;;;;;;;;5034971;28;20378;-89
2023/12/11 10:36:47;;;;;;;0.10;0.10;;;;;;;;;;5035197;28;20048;-89
2023/12/11 10:39:13;;;;;;;0.10;0.10;;;;;;;;;;5018837;28;20037;-90
2023/12/11 10:41:39;;;;;;;0.10;0.10;;;;;;;;;;5034891;28;20493;-90
2023/12/11 10:44:06;;;;;;;0.10;0.10;;;;;;;;;;5018629;28;20048;-90
2023/12/11 10:46:32;;;;;;;0.10;0.10;;;;;;;;;;5035090;28;20128;-89
2023/12/11 10:49:00;;;;;;;0.10;0.10;;;;;;;;;;5009985;28;20095;-90
2023/12/11 10:51:26;;;;;;;0.63;0.63;;;;;;;;;;5030947;28;20045;-90
2023/12/11 10:53:52;;;;;;;0.10;0.10;;;;;;;;;;5015019;28;20099;-90
2023/12/11 10:56:18;;;;;;;0.10;0.10;;;;;;;;;;5027707;28;20033;-89
2023/12/11 10:58:44;;;;;;;0.10;0.10;;;;;;;;;;4998486;28;20033;-89
2023/12/11 11:01:12;;;;;;;0.10;0.10;;;;;;;;;;5031049;28;20094;-89
2023/12/11 11:03:38;;;;;;;0.10;0.10;;;;;;;;;;5018375;28;20557;-89
2023/12/11 11:06:05;;;;;;;0.13;0.13;;;;;;;;;;5034748;28;20431;-89
2023/12/11 11:08:36;;;;;;;0.20;0.20;;;;;;;;;;5018816;28;20047;-90
2023/12/11 11:11:29;;;;;;;0.10;0.10;;;;;;;;;;5050958;28;20040;-89
2023/12/11 11:14:14;;;;;;;0.10;0.10;;;;;;;;;;5028399;28;20049;-89
2023/12/11 11:16:52;;;;;;;0.93;0.93;;;;;;;;;;5051461;28;20453;-90
2023/12/11 11:19:18;;;;;;;0.10;0.10;;;;;;;;;;5050354;28;20039;-90
2023/12/11 11:22:00;;;;;;;0.10;0.10;;;;;;;;;;4997948;28;20468;-90
2023/12/11 11:24:26;;;;;;;0.10;0.10;;;;;;;;;;5031687;28;20041;-89
2023/12/11 11:26:52;;;;;;;0.10;0.10;;;;;;;;;;5018391;28;20395;-89
2023/12/11 11:29:37;;;;;;;0.10;0.10;;;;;;;;;;5018385;28;20040;-88
2023/12/11 11:32:03;;;;;;;0.10;0.10;;;;;;;;;;5051027;28;20041;-89
2023/12/11 11:34:49;;;;;;;0.10;0.10;;;;;;;;;;5017677;28;20052;-88
2023/12/11 11:37:20;;;;;;;0.20;0.20;;;;;;;;;;5050840;28;20124;-89
2023/12/11 11:39:58;;;;;;;0.17;0.17;;;;;;;;;;5018660;28;20072;-89
2023/12/11 11:42:25;;;;;;;0.10;0.10;;;;;;;;;;5050567;28;20496;-88
2023/12/11 11:44:58;;;;;;;0.10;0.10;;;;;;;;;;5018116;28;20080;-88
2023/12/11 11:47:27;;;;;;;0.32;0.30;;;;;;;;;;5017951;28;20485;-89
2023/12/11 11:49:54;;;;;;;0.10;0.10;;;;;;;;;;5033964;28;20045;-89
2023/12/11 11:52:24;;;;;;;0.22;0.22;;;;;;;;;;5017793;28;20416;-89
2023/12/11 11:54:50;;;;;;;2.92;1.60;;;;;;;;;;5034231;28;20041;-89
2023/12/11 11:57:16;;;;;;;0.10;0.10;;;;;;;;;;5034064;28;20120;-88
2023/12/11 11:59:45;;;;;;;0.10;0.10;;;;;;;;;;5017375;28;20342;-88
2023/12/11 12:02:11;;;;;;;0.40;0.40;;;;;;;;;;5033975;28;20119;-88
2023/12/11 12:04:37;;;;;;;0.10;0.10;;;;;;;;;;5033905;28;20041;-88
2023/12/11 12:07:04;;;;;;;0.10;0.10;;;;;;;;;;5033911;28;20373;-87
2023/12/11 12:09:30;;;;;;;0.10;0.10;;;;;;;;;;5050110;28;20032;-87
2023/12/11 12:11:56;;;;;;;0.10;0.10;;;;;;;;;;5017388;28;20048;-88
2023/12/11 12:14:22;;;;;;;0.10;0.10;;;;;;;;;;5033830;28;20386;-88
2023/12/11 12:16:48;;;;;;;0.10;0.10;;;;;;;;;;5017735;28;20053;-88
2023/12/11 12:19:15;;;;;;;0.10;0.10;;;;;;;;;;5033948;28;20504;-89
2023/12/11 12:21:51;;;;;;;0.10;0.10;;;;;;;;;;5015986;28;20033;-89
2023/12/11 12:24:18;;;;;;;0.10;0.10;;;;;;;;;;5033793;28;20045;-90
2023/12/11 12:26:45;;;;;;;0.30;0.30;;;;;;;;;;5050475;28;20052;-89
2023/12/11 12:29:11;;;;;;;0.20;0.20;;;;;;;;;;5034245;28;20388;-89
2023/12/11 12:31:38;;;;;;;0.10;0.10;;;;;;;;;;5034174;28;20094;-90
2023/12/11 12:34:04;;;;;;;0.10;0.10;;;;;;;;;;5037507;28;20041;-89
2023/12/11 12:36:30;;;;;;;0.10;0.10;;;;;;;;;;5036727;28;20041;-89
2023/12/11 12:38:56;;;;;;;0.10;0.10;;;;;;;;;;5037767;28;20047;-89
2023/12/11 12:41:22;;;;;;;0.10;0.10;;;;;;;;;;5037143;28;20053;-89
2023/12/11 12:43:48;;;;;;;0.10;0.10;;;;;;;;;;5021147;28;20049;-89
2023/12/11 12:46:14;;;;;;;0.25;0.25;;;;;;;;;;5020769;28;20044;-89
2023/12/11 12:48:41;;;;;;;0.20;0.20;;;;;;;;;;5037457;28;20037;-89
2023/12/11 12:51:11;;;;;;;0.10;0.10;;;;;;;;;;5020472;28;20041;-89
2023/12/11 12:53:46;;;;;;;0.10;0.10;;;;;;;;;;5020810;28;20074;-90
2023/12/11 12:56:16;;;;;;;0.10;0.10;;;;;;;;;;5037052;28;20079;-89
2023/12/11 12:58:42;;;;;;;0.32;0.20;;;;;;;;;;5020704;28;20090;-88
2023/12/11 13:01:08;;;;;;;0.15;0.15;;;;;;;;;;5036884;28;20045;-87
2023/12/11 13:03:34;;;;;;;0.20;0.20;;;;;;;;;;5036907;28;20500;-89
2023/12/11 13:06:00;;;;;;;0.47;0.47;;;;;;;;;;5037236;28;20041;-88
2023/12/11 13:08:27;;;;;;;0.10;0.10;;;;;;;;;;5020437;28;20453;-90
2023/12/11 13:10:54;;;;;;;0.20;0.20;;;;;;;;;;5053542;28;20094;-88
2023/12/11 13:13:21;;;;;;;0.10;0.10;;;;;;;;;;5020384;28;20044;-93
2023/12/11 13:15:48;;;;;;;0.10;0.10;;;;;;;;;;5053051;28;20041;-90
2023/12/11 13:18:17;;;;;;;0.10;0.10;;;;;;;;;;5053330;28;20423;-89
2023/12/11 13:20:43;;;;;;;0.10;0.10;;;;;;;;;;5036883;28;20037;-87
2023/12/11 13:23:10;;;;;;;0.20;0.20;;;;;;;;;;5036930;28;20364;-89
2023/12/11 13:25:36;;;;;;;0.10;0.10;;;;;;;;;;5036535;28;20048;-89
2023/12/11 13:28:03;;;;;;;0.10;0.10;;;;;;;;;;5036595;28;20045;-91
2023/12/11 13:30:29;;;;;;;0.10;0.10;;;;;;;;;;5036809;28;20060;-86
2023/12/11 13:32:55;;;;;;;0.10;0.10;;;;;;;;;;5036231;28;20477;-89
2023/12/11 13:35:21;;;;;;;0.25;0.25;;;;;;;;;;5034895;28;20069;-88
2023/12/11 13:37:47;;;;;;;0.10;0.10;;;;;;;;;;5036022;28;20041;-87
2023/12/11 13:40:16;;;;;;;0.10;0.10;;;;;;;;;;5019309;28;20086;-88
2023/12/11 13:42:42;;;;;;;0.10;0.10;;;;;;;;;;5019633;28;20048;-88
2023/12/11 13:45:08;;;;;;;0.10;0.10;;;;;;;;;;5035916;28;20397;-87
2023/12/11 13:47:34;;;;;;;0.10;0.10;;;;;;;;;;5019638;28;20041;-87
2023/12/11 13:50:00;;;;;;;0.10;0.10;;;;;;;;;;5035692;28;20048;-87
2023/12/11 13:52:26;;;;;;;0.10;0.10;;;;;;;;;;5052484;28;20408;-87
2023/12/11 13:54:52;;;;;;;0.10;0.10;;;;;;;;;;5035686;28;20045;-88
2023/12/11 13:57:19;;;;;;;0.10;0.10;;;;;;;;;;5019294;28;20037;-88
2023/12/11 13:59:45;;;;;;;0.10;0.10;;;;;;;;;;5035892;28;20053;-87
2023/12/11 14:02:11;;;;;;;0.10;0.10;;;;;;;;;;5035747;28;20070;-86
2023/12/11 14:04:37;;;;;;;0.10;0.10;;;;;;;;;;5051945;28;20049;-87
2023/12/11 14:07:03;;;;;;;0.20;0.20;;;;;;;;;;5018958;28;20480;-88
2023/12/11 14:09:32;;;;;;;0.10;0.10;;;;;;;;;;5019244;28;20448;-87
2023/12/11 14:11:58;;;;;;;0.10;0.10;;;;;;;;;;5032938;28;20131;-87
2023/12/11 14:14:24;;;;;;;0.10;0.10;;;;;;;;;;5034872;28;20557;-87
2023/12/11 14:16:49;;;;;;;0.10;0.10;;;;;;;;;;5034762;28;20063;-88
2023/12/11 14:19:17;;;;;;;0.10;0.10;;;;;;;;;;5034175;28;20032;-87
2023/12/11 14:21:43;;;;;;;0.10;0.10;;;;;;;;;;5035273;28;20456;-88
2023/12/11 14:24:09;;;;;;;0.10;0.10;;;;;;;;;;5035203;28;20400;-87
2023/12/11 14:26:35;;;;;;;0.10;0.10;;;;;;;;;;5019095;28;20435;-87
2023/12/11 14:29:01;;;;;;;0.10;0.10;;;;;;;;;;5035294;28;20048;-87
2023/12/11 14:31:27;;;;;;;0.10;0.10;;;;;;;;;;5018986;28;20041;-87
2023/12/11 14:33:53;;;;;;;0.10;0.10;;;;;;;;;;5018707;28;20103;-87
2023/12/11 14:36:19;;;;;;;1.85;0.50;;;;;;;;;;5051633;28;20037;-87
2023/12/11 14:38:45;;;;;;;0.10;0.10;;;;;;;;;;5049706;28;20036;-88
2023/12/11 14:41:12;;;;;;;0.10;0.10;;;;;;;;;;5035119;28;20056;-89